地図

経路データ

SID SEASON NUMBER BASIN SUBBASIN NAME ISO_TIME NATURE LAT LON WMO_WIND WMO_PRES WMO_AGENCY TRACK_TYPE DIST2LAND LANDFALL IFLAG USA_AGENCY USA_ATCF_ID USA_LAT USA_LON USA_RECORD USA_STATUS USA_WIND USA_PRES USA_SSHS USA_R34_NE USA_R34_SE USA_R34_SW USA_R34_NW USA_R50_NE USA_R50_SE USA_R50_SW USA_R50_NW USA_R64_NE USA_R64_SE USA_R64_SW USA_R64_NW USA_POCI USA_ROCI USA_RMW USA_EYE TOKYO_LAT TOKYO_LON TOKYO_GRADE TOKYO_WIND TOKYO_PRES TOKYO_R50_DIR TOKYO_R50_LONG TOKYO_R50_SHORT TOKYO_R30_DIR TOKYO_R30_LONG TOKYO_R30_SHORT TOKYO_LAND CMA_LAT CMA_LON CMA_CAT CMA_WIND CMA_PRES HKO_LAT HKO_LON HKO_CAT HKO_WIND HKO_PRES NEWDELHI_LAT NEWDELHI_LON NEWDELHI_GRADE NEWDELHI_WIND NEWDELHI_PRES NEWDELHI_CI NEWDELHI_DP NEWDELHI_POCI REUNION_LAT REUNION_LON REUNION_TYPE REUNION_WIND REUNION_PRES REUNION_TNUM REUNION_CI REUNION_RMW REUNION_R34_NE REUNION_R34_SE REUNION_R34_SW REUNION_R34_NW REUNION_R50_NE REUNION_R50_SE REUNION_R50_SW REUNION_R50_NW REUNION_R64_NE REUNION_R64_SE REUNION_R64_SW REUNION_R64_NW BOM_LAT BOM_LON BOM_TYPE BOM_WIND BOM_PRES BOM_TNUM BOM_CI BOM_RMW BOM_R34_NE BOM_R34_SE BOM_R34_SW BOM_R34_NW BOM_R50_NE BOM_R50_SE BOM_R50_SW BOM_R50_NW BOM_R64_NE BOM_R64_SE BOM_R64_SW BOM_R64_NW BOM_ROCI BOM_POCI BOM_EYE BOM_POS_METHOD BOM_PRES_METHOD NADI_LAT NADI_LON NADI_CAT NADI_WIND NADI_PRES WELLINGTON_LAT WELLINGTON_LON WELLINGTON_WIND WELLINGTON_PRES DS824_LAT DS824_LON DS824_STAGE DS824_WIND DS824_PRES TD9636_LAT TD9636_LON TD9636_STAGE TD9636_WIND TD9636_PRES TD9635_LAT TD9635_LON TD9635_WIND TD9635_PRES TD9635_ROCI NEUMANN_LAT NEUMANN_LON NEUMANN_CLASS NEUMANN_WIND NEUMANN_PRES MLC_LAT MLC_LON MLC_CLASS MLC_WIND MLC_PRES USA_GUST BOM_GUST BOM_GUST_PER REUNION_GUST REUNION_GUST_PER USA_SEAHGT USA_SEARAD_NE USA_SEARAD_SE USA_SEARAD_SW USA_SEARAD_NW STORM_SPEED STORM_DIR
1951255N17254 1951 70 EP MM NOT_NAMED 1951-09-11 12:00:00 TS 17.1000 -105.600 45 hurdat_epa main 249 208 O________OO___ hurdat_epa EP071951 17.1000 -105.600 TS 45 0 17.1000 -105.600 TC 45 17.1000 -105.600 2 8 0
1951255N17254 1951 70 EP MM NOT_NAMED 1951-09-11 15:00:00 TS 17.5044 -105.597 main 208 168 P________PP___ EP071951 17.5075 -105.588 TS 45 0 17.5075 -105.588 TC 45 17.4922 -105.637 2 8 0
1951255N17254 1951 70 EP MM NOT_NAMED 1951-09-11 18:00:00 TS 17.8955 -105.614 45 hurdat_epa main 168 140 O________OP___ hurdat_epa EP071951 17.9000 -105.600 TS 45 0 17.9000 -105.600 TC 45 17.8776 -105.670 2 8 356
1951255N17254 1951 70 EP MM NOT_NAMED 1951-09-11 21:00:00 TS 18.2618 -105.658 main 138 114 P________PP___ EP071951 18.2650 -105.650 TS 45 0 18.2650 -105.650 TC 45 18.2491 -105.692 2 7 354
1951255N17254 1951 70 EP MM NOT_NAMED 1951-09-12 00:00:00 TS 18.6000 -105.700 45 hurdat_epa main 114 92 O________OO___ hurdat_epa EP071951 18.6000 -105.700 TS 45 0 18.6000 -105.700 TC 45 18.6000 -105.700 2 7 357
1951255N17254 1951 70 EP MM NOT_NAMED 1951-09-12 03:00:00 TS 18.9111 -105.699 main 92 69 P________PP___ EP071951 18.9075 -105.700 TS 45 0 18.9075 -105.700 TC 45 18.9255 -105.693 2 6 2
1951255N17254 1951 70 EP MM NOT_NAMED 1951-09-12 06:00:00 TS 19.2060 -105.698 45 hurdat_epa main 69 47 O________OP___ hurdat_epa EP071951 19.2000 -105.700 TS 45 0 19.2000 -105.700 TC 45 19.2298 -105.691 2 6 0
1951255N17254 1951 70 EP MM NOT_NAMED 1951-09-12 09:00:00 TS 19.5038 -105.720 main 47 38 P________PP___ EP071951 19.5000 -105.720 TS 45 0 19.5000 -105.720 TC 45 19.5192 -105.718 2 6 351
1951255N17254 1951 70 EP MM NOT_NAMED 1951-09-12 12:00:00 TS 19.8000 -105.800 45 hurdat_epa main 38 33 O________OO___ hurdat_epa EP071951 19.8000 -105.800 TS 45 0 19.8000 -105.800 TC 45 19.8000 -105.800 2 7 338
1951255N17254 1951 70 EP MM NOT_NAMED 1951-09-12 15:00:00 TS 20.1074 -105.973 main 45 38 P________PP___ EP071951 20.1075 -105.970 TS 45 0 20.1075 -105.970 TC 45 20.1068 -105.983 2 7 328
1951255N17254 1951 70 EP MM NOT_NAMED 1951-09-12 18:00:00 TS 20.4006 -106.204 45 hurdat_epa main 52 52 O________OP___ hurdat_epa EP071951 20.4000 -106.200 TS 45 0 20.4000 -106.200 TC 45 20.4029 -106.219 2 7 321
1951255N17254 1951 70 EP MM NOT_NAMED 1951-09-12 21:00:00 TS 20.6725 -106.466 main 89 89 P________PP___ EP071951 20.6726 -106.465 TS 45 0 20.6726 -106.465 TC 45 20.6725 -106.471 2 7 317
1951255N17254 1951 70 EP MM NOT_NAMED 1951-09-13 00:00:00 TS 20.9000 -106.700 45 hurdat_epa main 118 118 O________OO___ hurdat_epa EP071951 20.9000 -106.700 TS 45 0 20.9000 -106.700 TC 45 20.9000 -106.700 2 5 320
1951255N17254 1951 70 EP MM NOT_NAMED 1951-09-13 03:00:00 TS 21.0723 -106.822 main 138 138 P________PP___ EP071951 21.0724 -106.815 TS 45 0 21.0724 -106.815 TC 45 21.0720 -106.850 2 4 326
1951255N17254 1951 70 EP MM NOT_NAMED 1951-09-13 06:00:00 TS 21.2004 -106.915 45 hurdat_epa main 152 152 O________OP___ hurdat_epa EP071951 21.2000 -106.900 TS 45 0 21.2000 -106.900 TC 45 21.2022 -106.973 2 3 318
1951255N17254 1951 70 EP MM NOT_NAMED 1951-09-13 09:00:00 TS 21.3073 -107.051 main 173 168 P________PP___ EP071951 21.3075 -107.043 TS 45 0 21.3075 -107.043 TC 45 21.3064 -107.084 2 3 307
1951255N17254 1951 70 EP MM NOT_NAMED 1951-09-13 12:00:00 TS 21.4000 -107.200 45 hurdat_epa main 178 178 O________OO___ hurdat_epa EP071951 21.4000 -107.200 TS 45 0 21.4000 -107.200 TC 45 21.4000 -107.200 2 3 305
1951255N17254 1951 70 EP MM NOT_NAMED 1951-09-13 15:00:00 TS 21.5039 -107.349 main 184 184 P________PP___ EP071951 21.5000 -107.350 TS 45 0 21.5000 -107.350 TC 45 21.5194 -107.343 2 3 307
1951255N17254 1951 70 EP MM NOT_NAMED 1951-09-13 18:00:00 TS 21.6060 -107.498 45 hurdat_epa main 201 201 O________OP___ hurdat_epa EP071951 21.6000 -107.500 TS 45 0 21.6000 -107.500 TC 45 21.6300 -107.492 2 3 307
1951255N17254 1951 70 EP MM NOT_NAMED 1951-09-13 21:00:00 TS 21.7111 -107.649 main 204 204 P________PP___ EP071951 21.7075 -107.650 TS 45 0 21.7075 -107.650 TC 45 21.7256 -107.646 2 3 305
1951255N17254 1951 70 EP MM NOT_NAMED 1951-09-14 00:00:00 TS 21.8000 -107.800 45 hurdat_epa main 211 211 O________OO___ hurdat_epa EP071951 21.8000 -107.800 TS 45 0 21.8000 -107.800 TC 45 21.8000 -107.800 2 3 299
1951255N17254 1951 70 EP MM NOT_NAMED 1951-09-14 03:00:00 TS 21.8637 -107.947 main 211 204 P________PP___ EP071951 21.8650 -107.950 TS 45 0 21.8650 -107.950 TC 45 21.8586 -107.934 2 3 290
1951255N17254 1951 70 EP MM NOT_NAMED 1951-09-14 06:00:00 TS 21.8989 -108.094 45 hurdat_epa main 204 196 O________OP___ hurdat_epa EP071951 21.9000 -108.100 TS 45 0 21.9000 -108.100 TC 45 21.8947 -108.070 2 3 280
1951255N17254 1951 70 EP MM NOT_NAMED 1951-09-14 09:00:00 TS 21.9137 -108.238 main 196 181 P________PP___ EP071951 21.9150 -108.243 TS 45 0 21.9150 -108.243 TC 45 21.9085 -108.221 2 3 270
1951255N17254 1951 70 EP MM NOT_NAMED 1951-09-14 12:00:00 TS 21.9000 -108.400 45 hurdat_epa main 181 166 O________OO___ hurdat_epa EP071951 21.9000 -108.400 TS 45 0 21.9000 -108.400 TC 45 21.9000 -108.400 2 3 260
1951255N17254 1951 70 EP MM NOT_NAMED 1951-09-14 15:00:00 TS 21.8570 -108.582 main 166 160 P________PP___ EP071951 21.8574 -108.578 TS 45 0 21.8574 -108.578 TC 45 21.8551 -108.601 2 4 255
1951255N17254 1951 70 EP MM NOT_NAMED 1951-09-14 18:00:00 TS 21.7984 -108.807 45 hurdat_epa main 160 147 O________OP___ hurdat_epa EP071951 21.8000 -108.800 TS 45 0 21.8000 -108.800 TC 45 21.7922 -108.833 2 5 256
1951255N17254 1951 70 EP MM NOT_NAMED 1951-09-14 21:00:00 TS 21.7406 -109.076 main 152 140 P________PP___ EP071951 21.7424 -109.070 TS 45 0 21.7424 -109.070 TC 45 21.7331 -109.098 2 6 260
1951255N17254 1951 70 EP MM NOT_NAMED 1951-09-15 00:00:00 TS 21.7000 -109.400 45 hurdat_epa main 140 134 O________OO___ hurdat_epa EP071951 21.7000 -109.400 TS 45 0 21.7000 -109.400 TC 45 21.7000 -109.400 2 7 265
1951255N17254 1951 70 EP MM NOT_NAMED 1951-09-15 03:00:00 TS 21.6838 -109.782 main 134 134 P________PP___ EP071951 21.6776 -109.793 TS 45 0 21.6776 -109.793 TC 45 21.7090 -109.740 2 7 271
1951255N17254 1951 70 EP MM NOT_NAMED 1951-09-15 06:00:00 TS 21.7107 -110.182 45 hurdat_epa main 135 129 O________OP___ hurdat_epa EP071951 21.7000 -110.200 TS 45 0 21.7000 -110.200 TC 45 21.7534 -110.109 2 7 278
1951255N17254 1951 70 EP MM NOT_NAMED 1951-09-15 09:00:00 TS 21.7903 -110.552 main 137 137 P________PP___ EP071951 21.7825 -110.565 TS 45 0 21.7825 -110.565 TC 45 21.8212 -110.499 2 7 286
1951255N17254 1951 70 EP MM NOT_NAMED 1951-09-15 12:00:00 TS 21.9000 -110.900 45 hurdat_epa main 145 O________OO___ hurdat_epa EP071951 21.9000 -110.900 TS 45 0 21.9000 -110.900 TC 45 21.9000 -110.900 2 7 289

IBTrACS Databaseについて

本データベースは、米国NOAAが公開する1842年以降の世界の熱帯低気圧のベストトラックデータアーカイブInternational Best Track Archive for Climate Stewardship (IBTrACS)を、ウェブで閲覧しやすい形式に変換したものです。

最終更新日:2021-12-03